Time;durP1;ratioP1;P1;durP2;ratioP2;P2;SDS_P1;SDS_P2;PMS_P1;PMS_P2;Temp;Humidity;BMP_temperature;BMP_pressure;BME280_temperature;BME280_humidity;BME280_pressure;Samples;Min_cycle;Max_cycle;Signal;HPM_P1;HPM_P2
2022/04/21 00:00:04;;;;;;;8.10;6.03;;;;;;;;;;5073196;28;20047;-26
2022/04/21 00:02:31;;;;;;;6.88;5.97;;;;;;;;;;5071858;28;20478;-27
2022/04/21 00:04:57;;;;;;;6.38;5.70;;;;;;;;;;5072666;28;20123;-27
2022/04/21 00:07:24;;;;;;;8.20;5.97;;;;;;;;;;5072622;28;20094;-28
2022/04/21 00:09:50;;;;;;;9.35;5.60;;;;;;;;;;5072176;28;20119;-28
2022/04/21 00:12:16;;;;;;;7.43;6.10;;;;;;;;;;5072361;28;20488;-27
2022/04/21 00:14:42;;;;;;;8.65;5.90;;;;;;;;;;5072408;28;20409;-27
2022/04/21 00:17:09;;;;;;;8.85;6.38;;;;;;;;;;5072461;28;20463;-27
2022/04/21 00:19:35;;;;;;;7.57;6.15;;;;;;;;;;5072406;28;20040;-26
2022/04/21 00:24:46;;;;;;;7.90;5.88;;;;;;;;;;5072410;28;20078;-27
2022/04/21 00:27:12;;;;;;;7.97;6.00;;;;;;;;;;5072131;28;20036;-26
2022/04/21 00:29:38;;;;;;;9.13;6.25;;;;;;;;;;5072436;28;20078;-27
2022/04/21 00:32:05;;;;;;;10.00;6.70;;;;;;;;;;5072236;28;20051;-27
2022/04/21 00:34:33;;;;;;;8.13;6.00;;;;;;;;;;5072423;28;20529;-29
2022/04/21 00:37:00;;;;;;;7.38;6.05;;;;;;;;;;5072073;28;20041;-27
2022/04/21 00:39:27;;;;;;;9.73;6.40;;;;;;;;;;5072130;28;20394;-28
2022/04/21 00:41:56;;;;;;;8.10;6.82;;;;;;;;;;5071703;28;20036;-27
2022/04/21 00:44:22;;;;;;;9.48;6.18;;;;;;;;;;5072129;28;20153;-27
2022/04/21 00:46:49;;;;;;;10.30;6.97;;;;;;;;;;5072089;28;20150;-31
2022/04/21 00:49:15;;;;;;;15.10;7.43;;;;;;;;;;5054176;28;20044;-27
2022/04/21 00:51:42;;;;;;;8.40;6.05;;;;;;;;;;5072388;28;20127;-26
2022/04/21 00:54:08;;;;;;;9.27;6.72;;;;;;;;;;5054528;28;20123;-25
2022/04/21 00:56:34;;;;;;;7.90;6.50;;;;;;;;;;5072709;28;20036;-25
2022/04/21 00:59:03;;;;;;;7.88;6.70;;;;;;;;;;5072986;28;20048;-26
2022/04/21 01:04:15;;;;;;;9.77;6.38;;;;;;;;;;5071744;28;20049;-26
2022/04/21 01:06:41;;;;;;;10.43;6.88;;;;;;;;;;5072004;28;20115;-25
2022/04/21 01:09:07;;;;;;;7.50;6.53;;;;;;;;;;5071891;28;20044;-26
2022/04/21 01:11:33;;;;;;;7.85;6.03;;;;;;;;;;5070151;28;20076;-27
2022/04/21 01:13:59;;;;;;;7.47;6.45;;;;;;;;;;5071693;28;20486;-27
2022/04/21 01:16:25;;;;;;;7.95;6.50;;;;;;;;;;5053589;28;20102;-28
2022/04/21 01:18:52;;;;;;;9.77;7.05;;;;;;;;;;5071784;28;20429;-27
2022/04/21 01:21:18;;;;;;;8.93;6.82;;;;;;;;;;5071017;28;20046;-27
2022/04/21 01:23:44;;;;;;;7.45;6.13;;;;;;;;;;5053465;28;20045;-27
2022/04/21 01:26:12;;;;;;;8.95;6.68;;;;;;;;;;5070020;28;20086;-29
2022/04/21 01:28:39;;;;;;;9.25;7.03;;;;;;;;;;5053204;28;20119;-27
2022/04/21 01:31:05;;;;;;;9.32;7.00;;;;;;;;;;5071477;28;20090;-26
2022/04/21 01:33:31;;;;;;;9.38;6.90;;;;;;;;;;5071451;28;20127;-27
2022/04/21 01:35:57;;;;;;;9.85;7.05;;;;;;;;;;5071885;28;20045;-26
2022/04/21 01:41:14;;;;;;;10.35;6.85;;;;;;;;;;5072007;28;20072;-26
2022/04/21 01:43:43;;;;;;;8.18;6.55;;;;;;;;;;5072060;28;20060;-26
2022/04/21 01:46:09;;;;;;;7.90;7.07;;;;;;;;;;5071694;28;20102;-26
2022/04/21 01:48:36;;;;;;;11.20;7.35;;;;;;;;;;5071884;28;20043;-26
2022/04/21 01:51:02;;;;;;;10.23;7.35;;;;;;;;;;5074352;28;20044;-25
2022/04/21 01:53:28;;;;;;;9.15;7.32;;;;;;;;;;5074840;28;20132;-25
2022/04/21 01:55:55;;;;;;;11.00;7.68;;;;;;;;;;5075451;28;20421;-24
2022/04/21 01:58:21;;;;;;;9.55;7.07;;;;;;;;;;5075613;28;20502;-33
2022/04/21 02:00:47;;;;;;;9.93;6.82;;;;;;;;;;5074169;28;20040;-34
2022/04/21 02:03:13;;;;;;;10.40;7.85;;;;;;;;;;5074608;28;20041;-31
2022/04/21 02:05:39;;;;;;;11.77;8.45;;;;;;;;;;5074604;28;20089;-32
2022/04/21 02:08:07;;;;;;;9.13;7.50;;;;;;;;;;5074573;28;20037;-34
2022/04/21 02:10:33;;;;;;;11.00;8.32;;;;;;;;;;5074174;28;20147;-35
2022/04/21 02:12:59;;;;;;;9.43;8.32;;;;;;;;;;5074092;28;20041;-31
2022/04/21 02:15:26;;;;;;;10.75;8.75;;;;;;;;;;5073755;28;20101;-31
2022/04/21 02:17:52;;;;;;;10.75;9.10;;;;;;;;;;5056079;28;20048;-32
2022/04/21 02:20:18;;;;;;;11.05;8.15;;;;;;;;;;5074165;28;20039;-31
2022/04/21 02:22:45;;;;;;;10.38;8.57;;;;;;;;;;5074099;28;20072;-32
2022/04/21 02:25:12;;;;;;;14.13;10.10;;;;;;;;;;5074353;28;20047;-31
2022/04/21 02:27:40;;;;;;;13.15;9.73;;;;;;;;;;5073815;28;20094;-34
2022/04/21 02:30:07;;;;;;;14.82;10.10;;;;;;;;;;5073414;28;20036;-35
2022/04/21 02:32:34;;;;;;;12.50;10.05;;;;;;;;;;5073790;28;20041;-33
2022/04/21 02:35:00;;;;;;;14.52;11.27;;;;;;;;;;5073922;28;20490;-31
2022/04/21 02:37:26;;;;;;;13.82;10.73;;;;;;;;;;5072909;28;20106;-30
2022/04/21 02:39:52;;;;;;;13.45;10.82;;;;;;;;;;5073976;28;20524;-33
2022/04/21 02:42:22;;;;;;;14.52;11.88;;;;;;;;;;5072998;28;20463;-32
2022/04/21 02:44:48;;;;;;;14.48;11.10;;;;;;;;;;5074222;28;20544;-31
2022/04/21 02:47:14;;;;;;;17.02;12.32;;;;;;;;;;5074863;28;20028;-31
2022/04/21 02:49:46;;;;;;;13.98;11.30;;;;;;;;;;5074961;28;20080;-25
2022/04/21 02:52:12;;;;;;;16.60;12.75;;;;;;;;;;5074250;28;20119;-25
2022/04/21 02:57:23;;;;;;;14.65;11.45;;;;;;;;;;5073977;28;20098;-28
2022/04/21 02:59:54;;;;;;;14.43;11.98;;;;;;;;;;5074275;28;20042;-25
2022/04/21 03:02:20;;;;;;;14.23;11.35;;;;;;;;;;5073903;28;20044;-27
2022/04/21 03:04:47;;;;;;;15.85;11.15;;;;;;;;;;5073211;28;20103;-28
2022/04/21 03:07:13;;;;;;;14.30;10.43;;;;;;;;;;5073834;28;20431;-27
2022/04/21 03:09:43;;;;;;;14.07;10.25;;;;;;;;;;5072910;28;20044;-27
2022/04/21 03:12:09;;;;;;;13.85;10.18;;;;;;;;;;5055515;28;20072;-28
2022/04/21 03:14:36;;;;;;;14.90;11.05;;;;;;;;;;5073186;28;20044;-27
2022/04/21 03:17:02;;;;;;;13.35;10.10;;;;;;;;;;5073662;28;20500;-26
2022/04/21 03:19:28;;;;;;;12.40;9.57;;;;;;;;;;5073044;28;20107;-26
2022/04/21 03:24:39;;;;;;;13.40;10.45;;;;;;;;;;5073466;28;20044;-26
2022/04/21 03:27:05;;;;;;;13.00;10.40;;;;;;;;;;5072668;28;20036;-26
2022/04/21 03:29:32;;;;;;;13.00;10.75;;;;;;;;;;5072786;28;20465;-27
2022/04/21 03:31:58;;;;;;;11.32;9.65;;;;;;;;;;5073059;28;20398;-27
2022/04/21 03:34:25;;;;;;;12.63;10.20;;;;;;;;;;5072565;28;20070;-25
2022/04/21 03:36:51;;;;;;;11.55;9.95;;;;;;;;;;5058397;28;20036;-26
2022/04/21 03:39:22;;;;;;;11.93;10.20;;;;;;;;;;5072339;28;20036;-31
2022/04/21 03:41:53;;;;;;;11.30;9.82;;;;;;;;;;5072313;28;20120;-28
2022/04/21 03:44:22;;;;;;;12.52;9.98;;;;;;;;;;5072960;28;20048;-26
2022/04/21 03:46:49;;;;;;;12.27;9.90;;;;;;;;;;5073281;28;20028;-26
2022/04/21 03:49:15;;;;;;;11.52;9.80;;;;;;;;;;5072800;28;20041;-27
2022/04/21 03:51:41;;;;;;;11.35;9.45;;;;;;;;;;5073266;28;20040;-26
2022/04/21 03:54:07;;;;;;;12.77;10.00;;;;;;;;;;5073028;28;20486;-27
2022/04/21 03:56:33;;;;;;;14.60;10.90;;;;;;;;;;5072313;28;20478;-27
2022/04/21 03:59:00;;;;;;;14.35;9.98;;;;;;;;;;5072843;28;20044;-28
2022/04/21 04:01:26;;;;;;;15.32;10.73;;;;;;;;;;5072747;28;20087;-28
2022/04/21 04:03:52;;;;;;;13.63;10.32;;;;;;;;;;5073494;28;20047;-26
2022/04/21 04:11:50;;;;;;;14.15;11.68;;;;;;;;;;5072948;28;20076;-26
2022/04/21 04:14:16;;;;;;;14.50;10.45;;;;;;;;;;5072500;28;20512;-27
2022/04/21 04:16:44;;;;;;;12.43;10.07;;;;;;;;;;5072921;28;20094;-27
2022/04/21 04:19:10;;;;;;;15.25;10.90;;;;;;;;;;5054678;28;20080;-28
2022/04/21 04:21:37;;;;;;;13.20;10.07;;;;;;;;;;5072803;28;20166;-25
2022/04/21 04:24:03;;;;;;;16.75;11.32;;;;;;;;;;5072808;28;20052;-27
2022/04/21 04:26:29;;;;;;;13.48;11.15;;;;;;;;;;5072524;28;20036;-26
2022/04/21 04:28:55;;;;;;;14.70;11.45;;;;;;;;;;5072445;28;20064;-26
2022/04/21 04:31:22;;;;;;;16.52;10.75;;;;;;;;;;5054398;28;20497;-26
2022/04/21 04:33:48;;;;;;;15.82;9.95;;;;;;;;;;5072332;28;20040;-26
2022/04/21 04:36:16;;;;;;;13.27;11.35;;;;;;;;;;5072109;28;20047;-25
2022/04/21 04:38:43;;;;;;;12.18;10.85;;;;;;;;;;5054314;28;20572;-27
2022/04/21 04:43:54;;;;;;;12.85;10.85;;;;;;;;;;5072260;28;20094;-26
2022/04/21 04:46:36;;;;;;;15.80;10.60;;;;;;;;;;5072195;28;20037;-28
2022/04/21 04:49:04;;;;;;;14.95;11.25;;;;;;;;;;5072224;28;20103;-25
2022/04/21 04:51:31;;;;;;;14.93;10.98;;;;;;;;;;5071850;28;20106;-27
2022/04/21 04:53:57;;;;;;;12.55;10.55;;;;;;;;;;5072590;28;20095;-28
2022/04/21 04:56:29;;;;;;;15.40;11.35;;;;;;;;;;5072114;28;20041;-26
2022/04/21 04:58:56;;;;;;;14.18;10.18;;;;;;;;;;5071961;28;20110;-26
2022/04/21 05:01:32;;;;;;;12.23;10.38;;;;;;;;;;5071394;28;20051;-27
2022/04/21 05:04:02;;;;;;;13.00;10.15;;;;;;;;;;5071998;28;20128;-26
2022/04/21 05:06:29;;;;;;;13.80;10.70;;;;;;;;;;5072018;28;20504;-26
2022/04/21 05:08:57;;;;;;;13.73;11.00;;;;;;;;;;5071512;28;20040;-27
2022/04/21 05:11:23;;;;;;;14.43;11.10;;;;;;;;;;5058414;28;20099;-27
2022/04/21 05:13:49;;;;;;;12.98;10.05;;;;;;;;;;5051629;28;20347;-26
2022/04/21 05:16:15;;;;;;;14.35;11.05;;;;;;;;;;5069353;28;20040;-26
2022/04/21 05:18:41;;;;;;;14.13;10.88;;;;;;;;;;5071783;28;20044;-28
2022/04/21 05:21:07;;;;;;;15.27;10.80;;;;;;;;;;5071603;28;20028;-26
2022/04/21 05:23:34;;;;;;;12.82;10.32;;;;;;;;;;5072117;28;20045;-26
2022/04/21 05:26:01;;;;;;;14.60;11.25;;;;;;;;;;5074262;28;20482;-26
2022/04/21 05:28:27;;;;;;;14.95;11.23;;;;;;;;;;5075941;28;20043;-27
2022/04/21 05:30:58;;;;;;;13.38;11.40;;;;;;;;;;5075912;28;20036;-26
2022/04/21 05:33:26;;;;;;;14.38;11.95;;;;;;;;;;5075787;28;20486;-26
2022/04/21 05:35:52;;;;;;;16.27;12.43;;;;;;;;;;5075943;28;20475;-27
2022/04/21 05:38:20;;;;;;;14.45;11.55;;;;;;;;;;5075362;28;20037;-26
2022/04/21 05:40:46;;;;;;;13.10;10.98;;;;;;;;;;5075399;28;20047;-25
2022/04/21 05:43:14;;;;;;;13.55;10.60;;;;;;;;;;5075776;28;20101;-27
2022/04/21 05:45:40;;;;;;;11.85;10.63;;;;;;;;;;5075273;28;20040;-26
2022/04/21 05:48:07;;;;;;;14.35;10.98;;;;;;;;;;5075814;28;20120;-29
2022/04/21 05:50:33;;;;;;;12.57;9.40;;;;;;;;;;5075276;28;20033;-25
2022/04/21 05:53:02;;;;;;;15.60;11.75;;;;;;;;;;5075640;28;20036;-28
2022/04/21 05:55:29;;;;;;;13.35;10.50;;;;;;;;;;5076888;28;20039;-30
2022/04/21 05:57:55;;;;;;;15.10;11.35;;;;;;;;;;5076181;28;20051;-27
2022/04/21 06:00:22;;;;;;;12.88;10.77;;;;;;;;;;5075563;28;20508;-26
2022/04/21 06:02:48;;;;;;;14.32;11.57;;;;;;;;;;5075071;28;20040;-28
2022/04/21 06:05:14;;;;;;;16.35;11.40;;;;;;;;;;5075335;28;20398;-27
2022/04/21 06:07:40;;;;;;;14.10;10.63;;;;;;;;;;5075219;28;20094;-26
2022/04/21 06:10:06;;;;;;;12.75;10.90;;;;;;;;;;5074931;28;20040;-27
2022/04/21 06:12:34;;;;;;;12.73;9.73;;;;;;;;;;5075206;28;20071;-31
2022/04/21 06:15:00;;;;;;;12.05;9.35;;;;;;;;;;5075210;28;20044;-27
2022/04/21 06:17:26;;;;;;;13.93;9.80;;;;;;;;;;5074979;28;20068;-27
2022/04/21 06:19:52;;;;;;;13.98;10.38;;;;;;;;;;5075093;28;20045;-26
2022/04/21 06:22:18;;;;;;;13.80;9.77;;;;;;;;;;5075004;28;20123;-27
2022/04/21 06:24:44;;;;;;;12.38;9.23;;;;;;;;;;5074931;28;20072;-28
2022/04/21 06:27:10;;;;;;;13.02;8.93;;;;;;;;;;5074946;28;20070;-28
2022/04/21 06:29:37;;;;;;;12.57;9.30;;;;;;;;;;5074707;28;20036;-29
2022/04/21 06:32:03;;;;;;;11.05;8.95;;;;;;;;;;5074746;28;20045;-29
2022/04/21 06:34:29;;;;;;;11.35;9.27;;;;;;;;;;5074311;28;20406;-31
2022/04/21 06:36:55;;;;;;;10.73;8.13;;;;;;;;;;5073482;28;20100;-26
2022/04/21 06:39:21;;;;;;;10.82;8.40;;;;;;;;;;5075698;28;20040;-25
2022/04/21 06:41:47;;;;;;;12.30;8.52;;;;;;;;;;5075004;28;20119;-25
2022/04/21 06:49:42;;;;;;;10.13;7.70;;;;;;;;;;5074433;28;20040;-27
2022/04/21 06:52:08;;;;;;;10.85;7.32;;;;;;;;;;5074587;28;20059;-26
2022/04/21 06:54:35;;;;;;;9.55;6.97;;;;;;;;;;5074207;28;20425;-30
2022/04/21 06:57:01;;;;;;;7.32;6.60;;;;;;;;;;5074299;28;20112;-25
2022/04/21 06:59:27;;;;;;;7.40;6.30;;;;;;;;;;5074202;28;20040;-26
2022/04/21 07:01:53;;;;;;;9.23;5.97;;;;;;;;;;5073885;28;20490;-26
2022/04/21 07:04:20;;;;;;;6.15;5.40;;;;;;;;;;5073889;28;20040;-27
2022/04/21 07:06:46;;;;;;;6.78;5.85;;;;;;;;;;5073813;28;20098;-28
2022/04/21 07:09:12;;;;;;;6.97;5.38;;;;;;;;;;5073754;28;20405;-27
2022/04/21 07:11:38;;;;;;;6.93;5.40;;;;;;;;;;5073957;28;20043;-26
2022/04/21 07:14:05;;;;;;;9.20;6.00;;;;;;;;;;5073831;28;20037;-28
2022/04/21 07:16:31;;;;;;;7.57;5.57;;;;;;;;;;5073937;28;20052;-28
2022/04/21 07:18:57;;;;;;;8.27;5.30;;;;;;;;;;5073184;28;20331;-25
2022/04/21 07:21:23;;;;;;;6.35;4.85;;;;;;;;;;5073474;28;20043;-27
2022/04/21 07:23:50;;;;;;;5.03;4.53;;;;;;;;;;5073276;28;20040;-25
2022/04/21 07:26:17;;;;;;;7.95;5.25;;;;;;;;;;5073427;28;20445;-26
2022/04/21 07:28:44;;;;;;;5.63;5.03;;;;;;;;;;5073007;28;20111;-26
2022/04/21 07:31:11;;;;;;;5.00;4.50;;;;;;;;;;5073123;28;20190;-25
2022/04/21 07:33:37;;;;;;;6.03;4.40;;;;;;;;;;5072870;28;20071;-26
2022/04/21 07:36:03;;;;;;;5.55;4.70;;;;;;;;;;5073394;28;20041;-25
2022/04/21 07:38:31;;;;;;;5.25;4.53;;;;;;;;;;5073050;28;20482;-26
2022/04/21 07:40:57;;;;;;;4.53;4.10;;;;;;;;;;5073128;28;20494;-25
2022/04/21 07:43:23;;;;;;;5.25;4.10;;;;;;;;;;5054934;28;20048;-26
2022/04/21 07:45:49;;;;;;;4.60;3.58;;;;;;;;;;5072648;28;20405;-27
2022/04/21 07:48:16;;;;;;;5.35;3.70;;;;;;;;;;5072342;28;20105;-27
2022/04/21 07:50:42;;;;;;;4.88;3.85;;;;;;;;;;5073772;28;20119;-27
2022/04/21 07:53:14;;;;;;;5.30;3.90;;;;;;;;;;5073183;28;20516;-24
2022/04/21 07:55:44;;;;;;;5.30;3.80;;;;;;;;;;5072821;28;20075;-26
2022/04/21 07:58:10;;;;;;;4.68;3.70;;;;;;;;;;5073007;28;20047;-26
2022/04/21 08:00:36;;;;;;;6.40;3.88;;;;;;;;;;5072603;28;20115;-28
2022/04/21 08:03:06;;;;;;;4.45;3.60;;;;;;;;;;5072565;28;20474;-26
2022/04/21 08:05:32;;;;;;;4.20;3.53;;;;;;;;;;5072429;28;20097;-25
2022/04/21 08:07:59;;;;;;;4.50;3.63;;;;;;;;;;5072821;28;20036;-27
2022/04/21 08:10:29;;;;;;;4.55;4.07;;;;;;;;;;5072404;28;20105;-25
2022/04/21 08:12:58;;;;;;;4.57;3.92;;;;;;;;;;5054524;28;20048;-27
2022/04/21 08:15:34;;;;;;;3.65;3.10;;;;;;;;;;5064004;28;20045;-25
2022/04/21 08:18:05;;;;;;;5.20;3.20;;;;;;;;;;5068153;28;20414;-27
2022/04/21 08:20:32;;;;;;;7.20;3.53;;;;;;;;;;5067982;28;20040;-27
2022/04/21 08:22:59;;;;;;;3.65;3.35;;;;;;;;;;5060872;28;20045;-26
2022/04/21 08:33:39;;;;;;;5.47;3.53;;;;;;;;;;5069782;28;20440;-27
2022/04/21 08:36:05;;;;;;;4.30;3.45;;;;;;;;;;5054136;28;20076;-26
2022/04/21 08:38:33;;;;;;;4.32;3.33;;;;;;;;;;5060711;28;20386;-26
2022/04/21 08:41:01;;;;;;;7.75;4.32;;;;;;;;;;5071518;28;20037;-28
2022/04/21 08:43:28;;;;;;;4.95;3.80;;;;;;;;;;5062168;28;20048;-26
2022/04/21 08:45:54;;;;;;;5.45;3.72;;;;;;;;;;5071782;28;20033;-29
2022/04/21 08:48:21;;;;;;;5.18;3.45;;;;;;;;;;5071866;28;20071;-28
2022/04/21 08:50:47;;;;;;;3.75;3.35;;;;;;;;;;5071145;28;20032;-28
2022/04/21 08:53:15;;;;;;;4.53;3.78;;;;;;;;;;5071821;28;20086;-27
2022/04/21 08:55:41;;;;;;;5.53;3.80;;;;;;;;;;5047117;28;20040;-26
2022/04/21 08:58:07;;;;;;;4.85;3.60;;;;;;;;;;5071770;28;20037;-28
2022/04/21 09:00:33;;;;;;;5.75;3.65;;;;;;;;;;5071230;28;20032;-27
2022/04/21 09:03:00;;;;;;;3.67;3.20;;;;;;;;;;5071674;28;20047;-27
2022/04/21 09:05:28;;;;;;;5.22;3.92;;;;;;;;;;5071882;28;20041;-28
2022/04/21 09:07:54;;;;;;;10.10;3.83;;;;;;;;;;5071732;28;20048;-28
2022/04/21 09:10:21;;;;;;;7.13;3.63;;;;;;;;;;5071647;28;20059;-28
2022/04/21 09:12:48;;;;;;;5.32;3.70;;;;;;;;;;5072015;28;20076;-29
2022/04/21 09:15:15;;;;;;;4.18;3.53;;;;;;;;;;5071400;28;20037;-29
2022/04/21 09:17:43;;;;;;;5.90;3.20;;;;;;;;;;5072112;28;20063;-28
2022/04/21 09:20:10;;;;;;;3.95;3.15;;;;;;;;;;5071581;28;20119;-27
2022/04/21 09:22:39;;;;;;;3.25;2.63;;;;;;;;;;5071633;28;20043;-27
2022/04/21 09:25:06;;;;;;;5.93;3.40;;;;;;;;;;5071858;28;20534;-28
2022/04/21 09:27:45;;;;;;;3.22;2.90;;;;;;;;;;5071730;28;20117;-29
2022/04/21 09:30:13;;;;;;;3.85;3.53;;;;;;;;;;5071688;28;20036;-30
2022/04/21 09:32:42;;;;;;;5.68;3.10;;;;;;;;;;5071571;28;20048;-28
2022/04/21 09:35:09;;;;;;;3.38;3.08;;;;;;;;;;5071737;28;20114;-28
2022/04/21 09:37:52;;;;;;;4.43;2.90;;;;;;;;;;5053562;28;20079;-28
2022/04/21 09:40:19;;;;;;;3.67;3.33;;;;;;;;;;5071628;28;20045;-30
2022/04/21 09:42:53;;;;;;;3.10;2.80;;;;;;;;;;5071471;28;20029;-28
2022/04/21 09:48:11;;;;;;;4.07;2.97;;;;;;;;;;5072279;28;20051;-28
2022/04/21 09:50:41;;;;;;;3.90;3.08;;;;;;;;;;5071323;28;20090;-29
2022/04/21 09:53:07;;;;;;;3.67;3.35;;;;;;;;;;5071642;28;20493;-27
2022/04/21 09:55:34;;;;;;;5.32;3.40;;;;;;;;;;5064872;28;20037;-28
2022/04/21 09:58:07;;;;;;;3.88;3.30;;;;;;;;;;5051424;28;20437;-29
2022/04/21 10:00:35;;;;;;;3.95;2.88;;;;;;;;;;5051378;28;20040;-29
2022/04/21 10:03:03;;;;;;;3.92;3.55;;;;;;;;;;5050951;28;20041;-28
2022/04/21 10:05:33;;;;;;;3.60;3.03;;;;;;;;;;5064895;28;20044;-29
2022/04/21 10:08:03;;;;;;;3.50;3.20;;;;;;;;;;5070385;28;20512;-29
2022/04/21 10:10:29;;;;;;;4.80;3.13;;;;;;;;;;5070965;28;20033;-29
2022/04/21 10:12:56;;;;;;;6.28;3.45;;;;;;;;;;5074666;28;20124;-29
2022/04/21 10:15:22;;;;;;;8.32;3.08;;;;;;;;;;5074816;28;20054;-28
2022/04/21 10:17:49;;;;;;;3.78;3.25;;;;;;;;;;5074900;28;20088;-29
2022/04/21 10:20:15;;;;;;;3.35;3.08;;;;;;;;;;5074821;28;20389;-27
2022/04/21 10:22:41;;;;;;;3.88;3.53;;;;;;;;;;5074521;28;20490;-28
2022/04/21 10:25:08;;;;;;;3.50;3.17;;;;;;;;;;5074249;28;20178;-27
2022/04/21 10:27:34;;;;;;;3.33;3.13;;;;;;;;;;5074280;28;20037;-28
2022/04/21 10:30:00;;;;;;;3.88;3.47;;;;;;;;;;5074562;28;20397;-28
2022/04/21 10:32:45;;;;;;;3.78;3.50;;;;;;;;;;5074420;28;20143;-28
2022/04/21 10:35:20;;;;;;;5.97;3.70;;;;;;;;;;5074339;28;20044;-29
2022/04/21 10:37:46;;;;;;;4.95;3.00;;;;;;;;;;5074009;28;20414;-28
2022/04/21 10:40:15;;;;;;;3.63;3.30;;;;;;;;;;5073879;28;20393;-28
2022/04/21 10:42:57;;;;;;;3.53;2.78;;;;;;;;;;5073719;28;20437;-28
2022/04/21 10:45:27;;;;;;;3.30;3.00;;;;;;;;;;5074256;28;20506;-28
2022/04/21 10:48:03;;;;;;;3.22;2.90;;;;;;;;;;5074497;28;20042;-30
2022/04/21 10:50:32;;;;;;;3.28;2.60;;;;;;;;;;5058693;28;20037;-29
2022/04/21 10:58:34;;;;;;;3.55;2.90;;;;;;;;;;5067622;28;20048;-29
2022/04/21 11:01:09;;;;;;;4.10;3.40;;;;;;;;;;5073958;28;20051;-29
2022/04/21 11:03:36;;;;;;;6.05;3.58;;;;;;;;;;5056057;28;20056;-28
2022/04/21 11:06:05;;;;;;;4.63;3.55;;;;;;;;;;5053579;28;20049;-29
2022/04/21 11:08:32;;;;;;;3.38;3.08;;;;;;;;;;5060655;28;20481;-30
2022/04/21 11:10:58;;;;;;;7.00;3.50;;;;;;;;;;5069163;28;20036;-30
2022/04/21 11:13:39;;;;;;;3.55;3.08;;;;;;;;;;5073462;28;20045;-28
2022/04/21 11:16:06;;;;;;;3.85;3.08;;;;;;;;;;5059349;28;20071;-29
2022/04/21 11:18:32;;;;;;;3.08;2.78;;;;;;;;;;5073660;28;20044;-28
2022/04/21 11:21:17;;;;;;;5.85;3.15;;;;;;;;;;5070320;28;20033;-29
2022/04/21 11:23:43;;;;;;;4.53;3.00;;;;;;;;;;5053597;28;20514;-28
2022/04/21 11:26:09;;;;;;;4.60;3.22;;;;;;;;;;5053873;28;20072;-30
2022/04/21 11:28:36;;;;;;;4.43;3.60;;;;;;;;;;5063045;28;20149;-32
2022/04/21 11:31:03;;;;;;;3.50;3.20;;;;;;;;;;5062262;28;20047;-31
2022/04/21 11:33:32;;;;;;;3.63;3.30;;;;;;;;;;5056230;28;20443;-35
2022/04/21 11:36:08;;;;;;;4.05;3.42;;;;;;;;;;5053099;28;20045;-31
2022/04/21 11:39:01;;;;;;;3.85;3.45;;;;;;;;;;5071317;28;20501;-32
2022/04/21 11:41:28;;;;;;;3.97;3.65;;;;;;;;;;5056661;28;20041;-30
2022/04/21 11:43:55;;;;;;;4.40;3.38;;;;;;;;;;5065922;28;20056;-32
2022/04/21 11:46:21;;;;;;;3.13;2.92;;;;;;;;;;5063177;28;20044;-32
2022/04/21 11:48:56;;;;;;;3.60;3.30;;;;;;;;;;5060875;28;20025;-30
2022/04/21 11:51:24;;;;;;;3.50;3.20;;;;;;;;;;5056810;28;20040;-33
2022/04/21 11:53:51;;;;;;;6.45;3.97;;;;;;;;;;5058701;28;20437;-32
2022/04/21 11:56:17;;;;;;;3.88;3.55;;;;;;;;;;5061312;28;20040;-34
2022/04/21 11:58:43;;;;;;;3.58;3.20;;;;;;;;;;5067592;28;20040;-32
2022/04/21 12:06:44;;;;;;;4.55;3.70;;;;;;;;;;5054408;28;20119;-31
2022/04/21 12:09:14;;;;;;;4.35;3.97;;;;;;;;;;5062242;28;20120;-33
2022/04/21 12:11:41;;;;;;;4.30;3.83;;;;;;;;;;5058948;28;20501;-30
2022/04/21 12:14:08;;;;;;;5.88;3.88;;;;;;;;;;5065510;28;20040;-31
2022/04/21 12:16:36;;;;;;;6.20;4.10;;;;;;;;;;5072228;28;20048;-31
2022/04/21 12:19:12;;;;;;;5.50;4.15;;;;;;;;;;5071345;28;20041;-32
2022/04/21 12:21:38;;;;;;;7.70;4.20;;;;;;;;;;5063981;28;20540;-31
2022/04/21 12:24:14;;;;;;;5.75;3.92;;;;;;;;;;5058304;28;20044;-30
2022/04/21 12:26:51;;;;;;;5.07;3.90;;;;;;;;;;5059559;28;20509;-31
2022/04/21 12:29:18;;;;;;;5.53;3.75;;;;;;;;;;5064048;28;20039;-32
2022/04/21 12:31:47;;;;;;;4.40;3.67;;;;;;;;;;5053955;28;20128;-29
2022/04/21 12:34:19;;;;;;;4.18;3.65;;;;;;;;;;5056487;28;20059;-30
2022/04/21 12:36:55;;;;;;;6.15;3.35;;;;;;;;;;5071641;28;20452;-32
2022/04/21 12:39:22;;;;;;;4.13;3.38;;;;;;;;;;5069488;28;20066;-31
2022/04/21 12:41:48;;;;;;;4.45;3.45;;;;;;;;;;5051864;28;20045;-31
2022/04/21 12:44:16;;;;;;;4.32;3.13;;;;;;;;;;5061636;28;20402;-32
2022/04/21 12:46:42;;;;;;;4.15;3.60;;;;;;;;;;5069275;28;20110;-32
2022/04/21 12:49:09;;;;;;;5.53;3.42;;;;;;;;;;5069266;28;20497;-32
2022/04/21 12:51:35;;;;;;;4.10;3.22;;;;;;;;;;5070879;28;20106;-34
2022/04/21 12:54:02;;;;;;;4.10;3.60;;;;;;;;;;5071258;28;20051;-32
2022/04/21 12:56:33;;;;;;;4.95;3.50;;;;;;;;;;5071369;28;20040;-31
2022/04/21 12:59:00;;;;;;;4.55;3.40;;;;;;;;;;5072186;28;20049;-32
2022/04/21 13:01:26;;;;;;;3.78;3.42;;;;;;;;;;5071776;28;20542;-29
2022/04/21 13:03:52;;;;;;;3.80;3.30;;;;;;;;;;5072147;28;20533;-28
2022/04/21 13:06:28;;;;;;;4.82;3.40;;;;;;;;;;5071630;28;20036;-30
2022/04/21 13:08:55;;;;;;;4.57;3.55;;;;;;;;;;5071711;28;20045;-28
2022/04/21 13:11:21;;;;;;;6.60;3.90;;;;;;;;;;5071817;28;20490;-29
2022/04/21 13:13:47;;;;;;;4.80;3.70;;;;;;;;;;5071430;28;20123;-29
2022/04/21 13:16:13;;;;;;;3.85;3.53;;;;;;;;;;5054061;28;20398;-29
2022/04/21 13:18:39;;;;;;;4.63;4.22;;;;;;;;;;5071633;28;20048;-30
2022/04/21 13:23:50;;;;;;;4.38;3.60;;;;;;;;;;5071885;28;20448;-30
2022/04/21 13:26:16;;;;;;;5.55;4.18;;;;;;;;;;5071483;28;20070;-30
2022/04/21 13:28:42;;;;;;;4.68;4.28;;;;;;;;;;5071284;28;20082;-30
2022/04/21 13:33:54;;;;;;;3.75;3.30;;;;;;;;;;5071768;28;20040;-29
2022/04/21 13:36:20;;;;;;;4.85;3.70;;;;;;;;;;5071862;28;20041;-29
2022/04/21 13:38:46;;;;;;;4.45;3.20;;;;;;;;;;5071156;28;20123;-29
2022/04/21 13:41:12;;;;;;;5.40;3.40;;;;;;;;;;5071526;28;20036;-31
2022/04/21 13:43:38;;;;;;;4.43;3.92;;;;;;;;;;5071643;28;20051;-29
2022/04/21 13:46:04;;;;;;;10.65;3.80;;;;;;;;;;5071075;28;20641;-32
2022/04/21 13:48:31;;;;;;;4.35;3.70;;;;;;;;;;5074998;28;20037;-32
2022/04/21 13:50:57;;;;;;;3.78;3.38;;;;;;;;;;5074138;28;20128;-33
2022/04/21 13:53:23;;;;;;;4.38;3.92;;;;;;;;;;5074079;28;20032;-34
2022/04/21 13:55:49;;;;;;;4.97;3.80;;;;;;;;;;5073370;28;20028;-33
2022/04/21 13:58:15;;;;;;;3.78;3.38;;;;;;;;;;5074683;28;20093;-33
2022/04/21 14:00:45;;;;;;;4.18;3.63;;;;;;;;;;5055995;28;20047;-33
2022/04/21 14:03:12;;;;;;;5.63;3.72;;;;;;;;;;5073954;28;20076;-31
2022/04/21 14:05:39;;;;;;;5.72;3.45;;;;;;;;;;5073563;28;20044;-31
2022/04/21 14:08:06;;;;;;;4.43;4.10;;;;;;;;;;5074323;28;20068;-31
2022/04/21 14:10:33;;;;;;;4.45;4.05;;;;;;;;;;5055816;28;20109;-32
2022/04/21 14:12:59;;;;;;;7.45;3.83;;;;;;;;;;5073767;28;20044;-31
2022/04/21 14:15:25;;;;;;;7.57;3.92;;;;;;;;;;5073354;28;20036;-31
2022/04/21 14:17:51;;;;;;;5.65;3.80;;;;;;;;;;5074509;28;20465;-31
2022/04/21 14:20:17;;;;;;;4.35;3.95;;;;;;;;;;5073686;28;20116;-31
2022/04/21 14:22:43;;;;;;;4.78;4.00;;;;;;;;;;5073784;28;20091;-30
2022/04/21 14:25:09;;;;;;;5.70;4.38;;;;;;;;;;5074188;28;20383;-33
2022/04/21 14:27:35;;;;;;;5.32;3.90;;;;;;;;;;5073204;28;20547;-33
2022/04/21 14:30:03;;;;;;;4.50;3.83;;;;;;;;;;5074325;28;20041;-33
2022/04/21 14:32:29;;;;;;;4.85;3.95;;;;;;;;;;5073256;28;20452;-34
2022/04/21 14:34:55;;;;;;;5.70;3.80;;;;;;;;;;5074090;28;20115;-32
2022/04/21 14:45:37;;;;;;;4.63;3.83;;;;;;;;;;5073320;28;20674;-32
2022/04/21 14:48:04;;;;;;;4.50;4.03;;;;;;;;;;5073213;28;20040;-29
2022/04/21 14:50:30;;;;;;;7.30;4.20;;;;;;;;;;5073609;28;20121;-32
2022/04/21 14:52:57;;;;;;;5.53;3.80;;;;;;;;;;5072680;28;20048;-33
2022/04/21 14:55:24;;;;;;;3.97;3.67;;;;;;;;;;5073288;28;20052;-31
2022/04/21 14:57:50;;;;;;;6.03;3.53;;;;;;;;;;5054840;28;20040;-34
2022/04/21 15:00:16;;;;;;;4.95;3.90;;;;;;;;;;5072049;28;20061;-31
2022/04/21 15:02:42;;;;;;;5.78;3.50;;;;;;;;;;5072496;28;20068;-32
2022/04/21 15:05:09;;;;;;;8.55;3.70;;;;;;;;;;5071476;28;20406;-32
2022/04/21 15:07:35;;;;;;;5.53;3.60;;;;;;;;;;5072539;28;20037;-32
2022/04/21 15:10:01;;;;;;;4.00;2.97;;;;;;;;;;5073323;28;20458;-32
2022/04/21 15:12:27;;;;;;;4.55;4.15;;;;;;;;;;5072056;28;20032;-33
2022/04/21 15:14:53;;;;;;;4.22;3.83;;;;;;;;;;5073317;28;20044;-32
2022/04/21 15:17:19;;;;;;;6.95;3.75;;;;;;;;;;5072485;28;20032;-33
2022/04/21 15:19:47;;;;;;;4.03;3.40;;;;;;;;;;5065856;28;20093;-32
2022/04/21 15:22:15;;;;;;;3.90;3.55;;;;;;;;;;5064441;28;20082;-31
2022/04/21 15:24:42;;;;;;;5.70;3.95;;;;;;;;;;5059628;28;20098;-33
2022/04/21 15:27:08;;;;;;;6.35;4.00;;;;;;;;;;5065208;28;20169;-32
2022/04/21 15:29:34;;;;;;;9.23;4.10;;;;;;;;;;5062649;28;20459;-31
2022/04/21 15:32:00;;;;;;;5.78;3.63;;;;;;;;;;5062013;28;20064;-33
2022/04/21 15:34:27;;;;;;;6.50;3.67;;;;;;;;;;5063868;28;20062;-32
2022/04/21 15:36:53;;;;;;;5.55;3.13;;;;;;;;;;5065442;28;20115;-31
2022/04/21 15:39:19;;;;;;;8.85;3.60;;;;;;;;;;5065050;28;20391;-32